Time;durP1;ratioP1;P1;durP2;ratioP2;P2;SDS_P1;SDS_P2;PMS_P1;PMS_P2;Temp;Humidity;BMP_temperature;BMP_pressure;BME280_temperature;BME280_humidity;BME280_pressure;Samples;Min_cycle;Max_cycle;Signal;HPM_P1;HPM_P2
2022/05/30 00:01:46;;;;;;;;;;;21.20;53.20;;;;;;467897;254;2129;-39
2022/05/30 00:03:48;;;;;;;;;;;21.10;53.20;;;;;;466157;255;1223;-39
2022/05/30 00:05:49;;;;;;;;;;;21.20;53.20;;;;;;467794;254;1350;-39
2022/05/30 00:07:50;;;;;;;;;;;21.20;53.20;;;;;;466190;255;1185;-39
2022/05/30 00:09:52;;;;;;;;;;;21.20;53.30;;;;;;467591;255;1295;-39
2022/05/30 00:11:53;;;;;;;;;;;21.20;53.20;;;;;;465818;255;1233;-39
2022/05/30 00:13:54;;;;;;;;;;;21.10;53.30;;;;;;467881;254;1284;-39
2022/05/30 00:15:56;;;;;;;;;;;21.10;53.30;;;;;;466258;255;1189;-39
2022/05/30 00:17:57;;;;;;;;;;;21.20;53.20;;;;;;467646;255;1260;-39
2022/05/30 00:19:58;;;;;;;;;;;21.20;53.30;;;;;;465941;255;1280;-39
2022/05/30 00:21:59;;;;;;;;;;;21.10;53.20;;;;;;467610;254;2201;-39
2022/05/30 00:24:01;;;;;;;;;;;21.10;53.20;;;;;;465805;255;1276;-39
2022/05/30 00:26:02;;;;;;;;;;;21.10;53.30;;;;;;467880;254;1186;-39
2022/05/30 00:28:03;;;;;;;;;;;21.20;53.30;;;;;;465775;255;1270;-39
2022/05/30 00:30:05;;;;;;;;;;;21.10;53.20;;;;;;468055;254;1219;-39
2022/05/30 00:32:06;;;;;;;;;;;21.10;53.20;;;;;;465742;255;1210;-39
2022/05/30 00:34:08;;;;;;;;;;;21.20;53.20;;;;;;468048;254;1271;-39
2022/05/30 00:36:09;;;;;;;;;;;21.10;53.20;;;;;;465728;255;1375;-39
2022/05/30 00:38:10;;;;;;;;;;;21.20;53.20;;;;;;467665;255;1299;-39
2022/05/30 00:40:12;;;;;;;;;;;21.10;53.20;;;;;;465812;255;1201;-39
2022/05/30 00:42:13;;;;;;;;;;;21.20;53.20;;;;;;468050;254;2244;-39
2022/05/30 00:44:15;;;;;;;;;;;21.10;53.20;;;;;;465794;255;1182;-39
2022/05/30 00:46:17;;;;;;;;;;;21.10;53.20;;;;;;468033;254;1195;-39
2022/05/30 00:48:18;;;;;;;;;;;21.20;53.30;;;;;;466034;255;1210;-39
2022/05/30 00:50:19;;;;;;;;;;;21.10;53.20;;;;;;468072;254;1188;-39
2022/05/30 00:52:21;;;;;;;;;;;21.10;53.20;;;;;;466128;255;1240;-39
2022/05/30 00:54:22;;;;;;;;;;;21.10;53.30;;;;;;467783;254;1500;-39
2022/05/30 00:56:23;;;;;;;;;;;21.10;53.20;;;;;;466178;255;1265;-39
2022/05/30 00:58:25;;;;;;;;;;;21.10;53.20;;;;;;467919;253;1267;-39
2022/05/30 01:00:26;;;;;;;;;;;21.10;53.20;;;;;;466222;255;1227;-39
2022/05/30 01:02:27;;;;;;;;;;;21.10;53.30;;;;;;468003;255;2149;-39
2022/05/30 01:06:48;;;;;;;;;;;21.10;53.20;;;;;;467587;254;1224;-39
2022/05/30 01:08:49;;;;;;;;;;;21.10;53.20;;;;;;466214;254;1341;-39
2022/05/30 01:10:50;;;;;;;;;;;21.10;53.20;;;;;;467665;255;1284;-39
2022/05/30 01:12:52;;;;;;;;;;;21.10;53.10;;;;;;466237;255;1282;-39
2022/05/30 01:14:53;;;;;;;;;;;21.10;53.20;;;;;;468111;254;1228;-39
2022/05/30 01:16:54;;;;;;;;;;;21.10;53.20;;;;;;466113;255;1207;-39
2022/05/30 01:18:56;;;;;;;;;;;21.10;53.10;;;;;;467990;254;1459;-39
2022/05/30 01:20:57;;;;;;;;;;;21.10;53.10;;;;;;466115;255;2131;-39
2022/05/30 01:22:58;;;;;;;;;;;21.10;53.10;;;;;;468063;254;1289;-39
2022/05/30 01:25:00;;;;;;;;;;;21.20;53.10;;;;;;466020;255;1213;-39
2022/05/30 01:27:01;;;;;;;;;;;21.20;53.10;;;;;;467748;254;1196;-39
2022/05/30 01:29:02;;;;;;;;;;;21.20;53.00;;;;;;465868;255;1232;-39
2022/05/30 01:31:04;;;;;;;;;;;21.10;53.20;;;;;;467647;255;1221;-39
2022/05/30 01:33:05;;;;;;;;;;;21.10;53.10;;;;;;465829;255;1400;-39
2022/05/30 01:35:06;;;;;;;;;;;21.10;53.10;;;;;;467696;255;1177;-39
2022/05/30 01:37:07;;;;;;;;;;;21.20;53.10;;;;;;466189;255;1280;-39
2022/05/30 01:39:09;;;;;;;;;;;21.20;53.10;;;;;;467637;255;1326;-39
2022/05/30 01:41:10;;;;;;;;;;;21.10;53.10;;;;;;465793;255;2151;-39
2022/05/30 01:43:11;;;;;;;;;;;21.10;53.10;;;;;;467816;254;1254;-39
2022/05/30 01:45:13;;;;;;;;;;;21.20;53.10;;;;;;466271;255;1280;-39
2022/05/30 01:47:14;;;;;;;;;;;21.20;53.10;;;;;;467787;254;1268;-39
2022/05/30 01:49:15;;;;;;;;;;;21.20;53.00;;;;;;465772;255;1240;-39
2022/05/30 01:51:17;;;;;;;;;;;21.20;53.00;;;;;;467851;254;1296;-39
2022/05/30 01:53:18;;;;;;;;;;;21.20;53.10;;;;;;466185;255;1215;-39
2022/05/30 01:55:19;;;;;;;;;;;21.10;53.10;;;;;;467685;255;1592;-39
2022/05/30 01:57:21;;;;;;;;;;;21.10;53.00;;;;;;465955;255;1170;-39
2022/05/30 01:59:22;;;;;;;;;;;21.10;53.00;;;;;;468103;254;1238;-39
2022/05/30 02:01:24;;;;;;;;;;;21.10;53.10;;;;;;466115;255;2221;-39
2022/05/30 02:03:25;;;;;;;;;;;21.10;53.20;;;;;;467670;254;1282;-39
2022/05/30 02:05:26;;;;;;;;;;;21.10;53.10;;;;;;465824;255;1588;-39
2022/05/30 02:07:27;;;;;;;;;;;21.10;53.10;;;;;;468041;254;1178;-39
2022/05/30 02:09:28;;;;;;;;;;;21.10;53.00;;;;;;466173;255;1274;-39
2022/05/30 02:11:30;;;;;;;;;;;21.10;53.00;;;;;;467713;254;1281;-39
2022/05/30 02:13:31;;;;;;;;;;;21.10;53.10;;;;;;465971;255;1298;-39
2022/05/30 02:17:00;;;;;;;;;;;21.20;53.00;;;;;;467630;255;1345;-39
2022/05/30 02:17:35;;;;;;;;;;;21.20;53.00;;;;;;464614;256;1538;-39
2022/05/30 02:19:36;;;;;;;;;;;21.10;52.90;;;;;;468090;254;1392;-39
2022/05/30 02:21:38;;;;;;;;;;;21.20;53.00;;;;;;465740;255;2218;-39
2022/05/30 02:23:39;;;;;;;;;;;21.10;53.00;;;;;;467689;255;1058;-39
2022/05/30 02:25:40;;;;;;;;;;;21.10;53.00;;;;;;466041;255;1649;-39
2022/05/30 02:27:42;;;;;;;;;;;21.20;53.00;;;;;;467894;254;1300;-39
2022/05/30 02:29:43;;;;;;;;;;;21.10;53.00;;;;;;465902;255;1110;-39
2022/05/30 02:31:44;;;;;;;;;;;21.10;52.90;;;;;;468130;254;1289;-39
2022/05/30 02:38:25;;;;;;;;;;;21.10;53.00;;;;;;466295;255;1232;-39
2022/05/30 02:40:25;;;;;;;;;;;21.10;52.90;;;;;;468001;255;1390;-39
2022/05/30 02:42:27;;;;;;;;;;;21.10;53.00;;;;;;466253;255;2130;-39
2022/05/30 02:44:28;;;;;;;;;;;21.10;53.00;;;;;;468121;254;1289;-39
2022/05/30 02:46:29;;;;;;;;;;;21.10;53.00;;;;;;466003;254;1232;-39
2022/05/30 02:48:31;;;;;;;;;;;21.10;53.00;;;;;;468012;254;1255;-39
2022/05/30 02:50:32;;;;;;;;;;;21.10;53.00;;;;;;465687;255;1559;-39
2022/05/30 02:52:33;;;;;;;;;;;21.10;53.00;;;;;;467626;255;1231;-39
2022/05/30 02:54:35;;;;;;;;;;;21.10;53.00;;;;;;466018;255;1254;-39
2022/05/30 02:56:36;;;;;;;;;;;21.10;52.90;;;;;;467696;255;1241;-39
2022/05/30 02:58:37;;;;;;;;;;;21.10;53.00;;;;;;465874;255;1164;-39
2022/05/30 03:00:39;;;;;;;;;;;21.10;53.10;;;;;;468118;254;1260;-39
2022/05/30 03:02:40;;;;;;;;;;;21.10;53.00;;;;;;465806;255;2217;-39
2022/05/30 03:04:41;;;;;;;;;;;21.10;53.00;;;;;;468065;254;1219;-39
2022/05/30 03:06:43;;;;;;;;;;;21.10;53.00;;;;;;466099;255;1286;-39
2022/05/30 03:08:44;;;;;;;;;;;21.20;53.00;;;;;;467677;254;1253;-39
2022/05/30 03:10:45;;;;;;;;;;;21.10;53.00;;;;;;465734;255;1222;-39
2022/05/30 03:12:47;;;;;;;;;;;21.10;52.90;;;;;;467797;254;1317;-39
2022/05/30 03:14:50;;;;;;;;;;;21.10;52.90;;;;;;466188;255;1227;-39
2022/05/30 03:16:50;;;;;;;;;;;21.10;52.90;;;;;;467811;254;2195;-39
2022/05/30 03:18:52;;;;;;;;;;;21.10;52.90;;;;;;466051;255;1213;-39
2022/05/30 03:20:53;;;;;;;;;;;21.20;52.90;;;;;;467658;255;1374;-39
2022/05/30 03:22:55;;;;;;;;;;;21.20;52.90;;;;;;466116;255;2193;-39
2022/05/30 03:24:56;;;;;;;;;;;21.10;52.90;;;;;;467900;254;1844;-39
2022/05/30 03:26:57;;;;;;;;;;;21.10;52.90;;;;;;465724;255;1253;-39
2022/05/30 03:28:59;;;;;;;;;;;21.10;53.00;;;;;;468107;254;1213;-39
2022/05/30 03:31:00;;;;;;;;;;;21.10;53.10;;;;;;466116;255;1269;-39
2022/05/30 03:33:01;;;;;;;;;;;21.10;53.10;;;;;;468093;254;1199;-39
2022/05/30 03:35:04;;;;;;;;;;;21.10;53.10;;;;;;465804;255;1291;-39
2022/05/30 03:37:04;;;;;;;;;;;21.10;53.00;;;;;;467556;255;2641;-39
2022/05/30 03:39:05;;;;;;;;;;;21.10;52.90;;;;;;465863;255;1246;-39
2022/05/30 03:41:07;;;;;;;;;;;21.00;53.00;;;;;;467768;254;1206;-39
2022/05/30 03:43:09;;;;;;;;;;;21.10;53.10;;;;;;465849;255;2135;-39
2022/05/30 03:45:09;;;;;;;;;;;21.10;53.00;;;;;;467637;255;1550;-39
2022/05/30 03:47:10;;;;;;;;;;;21.10;52.90;;;;;;465739;255;1247;-39
2022/05/30 03:49:12;;;;;;;;;;;21.10;52.90;;;;;;468085;254;1306;-39
2022/05/30 03:51:14;;;;;;;;;;;21.10;52.90;;;;;;465712;255;1170;-39
2022/05/30 03:53:14;;;;;;;;;;;21.10;52.90;;;;;;467631;255;1169;-39
2022/05/30 03:55:16;;;;;;;;;;;21.10;52.90;;;;;;466232;255;1155;-39
2022/05/30 03:57:17;;;;;;;;;;;21.10;53.00;;;;;;467662;254;1340;-39
2022/05/30 03:59:18;;;;;;;;;;;21.10;52.90;;;;;;465769;255;1341;-39
2022/05/30 04:01:20;;;;;;;;;;;21.10;53.00;;;;;;467711;254;1209;-39
2022/05/30 04:03:21;;;;;;;;;;;21.10;53.00;;;;;;465890;255;2209;-39
2022/05/30 04:05:22;;;;;;;;;;;21.10;52.90;;;;;;467981;254;1254;-39
2022/05/30 04:07:24;;;;;;;;;;;21.10;52.90;;;;;;465998;255;1204;-39
2022/05/30 04:09:25;;;;;;;;;;;21.10;52.90;;;;;;467533;255;1157;-39
2022/05/30 04:11:26;;;;;;;;;;;21.10;52.80;;;;;;465658;255;1527;-39
2022/05/30 04:13:27;;;;;;;;;;;21.10;52.80;;;;;;467783;254;1159;-39
2022/05/30 04:15:29;;;;;;;;;;;21.10;52.80;;;;;;466109;255;1215;-39
2022/05/30 04:17:30;;;;;;;;;;;21.10;52.70;;;;;;467497;255;1286;-39
2022/05/30 04:19:31;;;;;;;;;;;21.10;52.90;;;;;;466083;255;1282;-39
2022/05/30 04:21:33;;;;;;;;;;;21.10;52.90;;;;;;467826;254;1204;-39
2022/05/30 04:23:34;;;;;;;;;;;21.10;52.90;;;;;;465778;255;2142;-39
2022/05/30 04:25:35;;;;;;;;;;;21.10;52.90;;;;;;467506;255;1246;-39
2022/05/30 04:27:37;;;;;;;;;;;21.10;52.80;;;;;;465749;255;1207;-39
2022/05/30 04:29:38;;;;;;;;;;;21.10;52.70;;;;;;467532;254;1366;-39
2022/05/30 04:31:39;;;;;;;;;;;21.20;52.70;;;;;;465632;255;1254;-39
2022/05/30 04:33:41;;;;;;;;;;;21.10;52.80;;;;;;467632;254;1067;-39
2022/05/30 04:35:42;;;;;;;;;;;21.10;52.80;;;;;;465693;255;1072;-39
2022/05/30 04:37:45;;;;;;;;;;;21.10;52.80;;;;;;467816;254;1203;-39
2022/05/30 04:39:45;;;;;;;;;;;21.10;52.80;;;;;;465865;256;1769;-39
2022/05/30 04:41:46;;;;;;;;;;;21.10;52.70;;;;;;467481;254;1248;-39
2022/05/30 04:43:47;;;;;;;;;;;21.10;52.70;;;;;;465663;255;2193;-39
2022/05/30 04:45:49;;;;;;;;;;;21.10;52.80;;;;;;467878;254;1417;-39
2022/05/30 04:47:50;;;;;;;;;;;21.10;52.80;;;;;;465621;255;1496;-39
2022/05/30 04:49:51;;;;;;;;;;;21.10;52.80;;;;;;467478;255;1120;-39
2022/05/30 04:51:53;;;;;;;;;;;21.20;52.80;;;;;;465519;255;1155;-39
2022/05/30 04:53:54;;;;;;;;;;;21.10;52.80;;;;;;467797;254;1080;-39
2022/05/30 04:55:55;;;;;;;;;;;21.10;52.80;;;;;;465583;255;1179;-39
2022/05/30 04:57:58;;;;;;;;;;;21.10;52.70;;;;;;467430;255;1751;-39
2022/05/30 04:59:58;;;;;;;;;;;21.10;52.70;;;;;;465861;255;1903;-39
2022/05/30 05:02:00;;;;;;;;;;;21.10;52.80;;;;;;467427;255;2129;-39
2022/05/30 05:04:01;;;;;;;;;;;21.10;52.80;;;;;;466042;255;1144;-39
2022/05/30 05:06:02;;;;;;;;;;;21.10;52.80;;;;;;467697;254;1202;-39
2022/05/30 05:08:04;;;;;;;;;;;21.10;52.80;;;;;;465687;255;1193;-39
2022/05/30 05:10:06;;;;;;;;;;;21.20;52.80;;;;;;467531;254;1222;-39
2022/05/30 05:12:06;;;;;;;;;;;21.10;52.80;;;;;;465404;255;1782;-39
2022/05/30 05:14:08;;;;;;;;;;;21.10;52.70;;;;;;467767;254;1521;-39
2022/05/30 05:16:09;;;;;;;;;;;21.10;52.70;;;;;;465456;255;1490;-39
2022/05/30 05:18:10;;;;;;;;;;;21.20;52.70;;;;;;467552;254;1248;-39
2022/05/30 05:20:12;;;;;;;;;;;21.10;52.70;;;;;;465700;255;1334;-39
2022/05/30 05:22:13;;;;;;;;;;;21.10;52.70;;;;;;467163;255;2203;-39
2022/05/30 05:24:15;;;;;;;;;;;21.20;52.80;;;;;;465582;255;1396;-39
2022/05/30 05:26:16;;;;;;;;;;;21.20;52.70;;;;;;467446;255;2036;-39
2022/05/30 05:28:18;;;;;;;;;;;21.10;52.70;;;;;;465518;255;1194;-39
2022/05/30 05:30:20;;;;;;;;;;;21.20;52.80;;;;;;467331;254;1222;-39
2022/05/30 05:32:20;;;;;;;;;;;21.10;52.70;;;;;;465653;255;2038;-39
2022/05/30 05:34:22;;;;;;;;;;;21.10;52.70;;;;;;467758;254;1273;-39
2022/05/30 05:36:23;;;;;;;;;;;21.10;52.80;;;;;;465627;255;1305;-39
2022/05/30 05:38:24;;;;;;;;;;;21.10;52.70;;;;;;467394;254;1211;-39
2022/05/30 05:40:27;;;;;;;;;;;21.10;52.80;;;;;;465620;255;1241;-39
2022/05/30 05:42:27;;;;;;;;;;;21.20;52.70;;;;;;467216;255;2188;-39
2022/05/30 05:44:28;;;;;;;;;;;21.10;52.70;;;;;;465548;255;1278;-39
2022/05/30 05:46:30;;;;;;;;;;;21.10;52.70;;;;;;467069;255;1280;-39
2022/05/30 05:48:31;;;;;;;;;;;21.00;52.80;;;;;;465521;255;1167;-39
2022/05/30 05:50:32;;;;;;;;;;;21.10;52.90;;;;;;467452;254;1141;-39
2022/05/30 05:52:34;;;;;;;;;;;21.10;52.80;;;;;;465506;255;1239;-39
2022/05/30 05:54:35;;;;;;;;;;;21.20;52.70;;;;;;467392;254;1203;-39
2022/05/30 05:56:36;;;;;;;;;;;21.20;52.70;;;;;;465590;255;1303;-39
2022/05/30 05:58:38;;;;;;;;;;;21.10;52.70;;;;;;467369;254;1259;-39
2022/05/30 06:00:39;;;;;;;;;;;21.10;52.70;;;;;;465471;255;1517;-39
2022/05/30 06:02:40;;;;;;;;;;;21.10;52.70;;;;;;467228;255;2204;-39
2022/05/30 06:04:41;;;;;;;;;;;21.10;52.60;;;;;;465399;255;1297;-39
2022/05/30 06:06:43;;;;;;;;;;;21.10;52.70;;;;;;467162;255;1179;-39
2022/05/30 06:08:44;;;;;;;;;;;21.10;52.70;;;;;;465316;255;1287;-39
2022/05/30 06:11:05;;;;;;;;;;;21.20;52.70;;;;;;467222;253;1319;-39
2022/05/30 06:13:06;;;;;;;;;;;21.10;52.70;;;;;;465355;255;1266;-39
2022/05/30 06:15:08;;;;;;;;;;;21.10;52.60;;;;;;467072;255;1247;-39
2022/05/30 06:17:09;;;;;;;;;;;21.20;52.60;;;;;;465242;255;1272;-39
2022/05/30 06:19:10;;;;;;;;;;;21.20;52.50;;;;;;467291;254;1188;-39
2022/05/30 06:21:12;;;;;;;;;;;21.20;52.60;;;;;;465081;255;1618;-39
2022/05/30 06:23:13;;;;;;;;;;;21.20;52.60;;;;;;466726;255;2148;-39
2022/05/30 06:25:14;;;;;;;;;;;21.20;52.50;;;;;;465135;255;1129;-39
2022/05/30 06:27:18;;;;;;;;;;;21.20;52.50;;;;;;467192;254;1272;-39
2022/05/30 06:29:17;;;;;;;;;;;21.20;52.50;;;;;;465071;256;1270;-39
2022/05/30 06:31:18;;;;;;;;;;;21.20;52.50;;;;;;467150;254;1170;-39
2022/05/30 06:33:20;;;;;;;;;;;21.20;52.40;;;;;;465245;255;1277;-39
2022/05/30 06:35:21;;;;;;;;;;;21.20;52.40;;;;;;467119;254;1164;-39
2022/05/30 06:37:23;;;;;;;;;;;21.10;52.50;;;;;;465111;255;1592;-39
2022/05/30 06:39:24;;;;;;;;;;;21.20;52.50;;;;;;467259;254;2460;-39
2022/05/30 06:41:25;;;;;;;;;;;21.10;52.40;;;;;;465270;255;1224;-39
2022/05/30 06:43:27;;;;;;;;;;;21.10;52.40;;;;;;467258;254;2216;-39
2022/05/30 06:45:28;;;;;;;;;;;21.10;52.40;;;;;;465198;255;1213;-39
2022/05/30 06:47:29;;;;;;;;;;;21.10;52.30;;;;;;466936;255;1491;-39
2022/05/30 06:49:31;;;;;;;;;;;21.20;52.40;;;;;;465094;255;1257;-39
2022/05/30 06:51:33;;;;;;;;;;;21.10;52.40;;;;;;466851;254;1244;-39
2022/05/30 06:53:33;;;;;;;;;;;21.10;52.30;;;;;;465721;255;2216;-39
2022/05/30 06:55:35;;;;;;;;;;;21.20;52.30;;;;;;466927;254;1577;-39
2022/05/30 06:59:55;;;;;;;;;;;21.10;52.20;;;;;;466693;254;1336;-39
2022/05/30 07:01:57;;;;;;;;;;;21.10;52.20;;;;;;464779;255;1394;-39
2022/05/30 07:03:58;;;;;;;;;;;21.20;52.30;;;;;;466822;254;2223;-39
2022/05/30 07:06:01;;;;;;;;;;;21.20;52.30;;;;;;464976;255;1566;-39
2022/05/30 07:08:01;;;;;;;;;;;21.20;52.20;;;;;;466716;255;2206;-39
2022/05/30 07:10:02;;;;;;;;;;;21.10;52.20;;;;;;464805;255;1229;-39
2022/05/30 07:12:03;;;;;;;;;;;21.20;52.20;;;;;;466731;255;1196;-39
2022/05/30 07:14:05;;;;;;;;;;;21.20;52.10;;;;;;464807;255;1340;-39
2022/05/30 07:16:08;;;;;;;;;;;21.10;52.20;;;;;;466662;255;1102;-39
2022/05/30 07:18:07;;;;;;;;;;;21.20;52.10;;;;;;465006;256;2339;-39
2022/05/30 07:20:09;;;;;;;;;;;21.20;52.10;;;;;;466796;255;1185;-39
2022/05/30 07:22:10;;;;;;;;;;;21.20;52.20;;;;;;464783;255;1211;-39
2022/05/30 07:24:11;;;;;;;;;;;21.10;52.20;;;;;;466773;254;2133;-39
2022/05/30 07:26:13;;;;;;;;;;;21.20;52.10;;;;;;464841;255;1310;-39
2022/05/30 07:28:14;;;;;;;;;;;21.20;52.10;;;;;;466822;254;1404;-39
2022/05/30 07:30:16;;;;;;;;;;;21.20;52.10;;;;;;465037;255;1204;-39
2022/05/30 07:32:18;;;;;;;;;;;21.20;52.10;;;;;;466813;254;1420;-39
2022/05/30 07:34:21;;;;;;;;;;;21.20;52.10;;;;;;464939;255;1257;-39
2022/05/30 07:36:24;;;;;;;;;;;21.20;52.10;;;;;;466483;254;1397;-39
2022/05/30 07:38:24;;;;;;;;;;;21.10;52.20;;;;;;464652;255;2131;-39
2022/05/30 07:40:25;;;;;;;;;;;21.20;52.10;;;;;;466567;254;1228;-39
2022/05/30 07:42:26;;;;;;;;;;;21.20;52.10;;;;;;464735;255;1232;-39
2022/05/30 07:44:28;;;;;;;;;;;21.20;52.10;;;;;;467468;254;2204;-39
2022/05/30 07:46:29;;;;;;;;;;;21.20;52.00;;;;;;464916;255;1227;-39
2022/05/30 07:48:31;;;;;;;;;;;21.20;52.10;;;;;;466752;255;1291;-39
2022/05/30 07:50:32;;;;;;;;;;;21.20;52.10;;;;;;464910;255;1352;-39
2022/05/30 07:52:33;;;;;;;;;;;21.20;52.00;;;;;;466809;254;1172;-39
2022/05/30 07:54:35;;;;;;;;;;;21.20;52.00;;;;;;464852;255;1273;-39
2022/05/30 07:56:36;;;;;;;;;;;21.20;52.00;;;;;;466584;255;1237;-39
2022/05/30 07:58:37;;;;;;;;;;;21.20;52.00;;;;;;464765;255;1262;-39
2022/05/30 08:00:39;;;;;;;;;;;21.20;52.00;;;;;;466507;254;1168;-39
2022/05/30 08:02:40;;;;;;;;;;;21.20;52.00;;;;;;464591;255;1228;-39
2022/05/30 08:04:42;;;;;;;;;;;21.20;52.00;;;;;;466520;255;2138;-39
2022/05/30 08:06:43;;;;;;;;;;;21.20;51.90;;;;;;464505;256;2075;-39
2022/05/30 08:08:44;;;;;;;;;;;21.20;51.90;;;;;;466704;254;1226;-39
2022/05/30 08:10:46;;;;;;;;;;;21.30;51.90;;;;;;464850;255;1355;-39
2022/05/30 08:12:47;;;;;;;;;;;21.20;51.80;;;;;;466579;255;1323;-39
2022/05/30 08:14:48;;;;;;;;;;;21.30;51.90;;;;;;464936;255;1318;-39
2022/05/30 08:16:50;;;;;;;;;;;21.30;51.90;;;;;;466952;254;1300;-39
2022/05/30 08:18:51;;;;;;;;;;;21.30;51.80;;;;;;465677;255;1132;-39
2022/05/30 08:20:53;;;;;;;;;;;21.20;51.80;;;;;;467356;253;1267;-39
2022/05/30 08:22:54;;;;;;;;;;;21.20;51.90;;;;;;465097;255;1358;-39
2022/05/30 08:24:55;;;;;;;;;;;21.20;51.90;;;;;;466645;255;2197;-39
2022/05/30 08:26:56;;;;;;;;;;;21.30;51.80;;;;;;465146;255;1406;-39
2022/05/30 08:28:58;;;;;;;;;;;21.30;51.80;;;;;;467558;254;1067;-39
2022/05/30 08:30:59;;;;;;;;;;;21.20;51.80;;;;;;464869;255;1254;-39
2022/05/30 08:33:00;;;;;;;;;;;21.20;51.80;;;;;;466736;254;1299;-39
2022/05/30 08:35:03;;;;;;;;;;;21.20;51.80;;;;;;464888;255;1305;-39
2022/05/30 08:37:03;;;;;;;;;;;21.30;51.80;;;;;;466748;255;2409;-39
2022/05/30 08:43:42;;;;;;;;;;;21.30;51.70;;;;;;465460;255;2214;-39
2022/05/30 08:45:44;;;;;;;;;;;21.30;51.70;;;;;;466893;254;1164;-39
2022/05/30 08:47:45;;;;;;;;;;;21.30;51.70;;;;;;464929;255;1721;-39
2022/05/30 08:49:46;;;;;;;;;;;21.30;51.70;;;;;;466623;255;1295;-39
2022/05/30 08:51:48;;;;;;;;;;;21.30;51.80;;;;;;464780;255;1354;-39
2022/05/30 08:53:49;;;;;;;;;;;21.30;51.70;;;;;;466607;254;1064;-39
2022/05/30 08:55:50;;;;;;;;;;;21.30;51.70;;;;;;464793;255;1126;-39
2022/05/30 08:57:52;;;;;;;;;;;21.30;51.70;;;;;;466663;254;1134;-39
2022/05/30 08:59:54;;;;;;;;;;;21.30;51.70;;;;;;464846;255;1171;-39
2022/05/30 09:01:55;;;;;;;;;;;21.30;51.70;;;;;;466519;255;1360;-39
2022/05/30 09:04:09;;;;;;;;;;;21.30;51.70;;;;;;464578;255;2194;-39
2022/05/30 09:06:10;;;;;;;;;;;21.30;51.70;;;;;;466571;254;1261;-39
2022/05/30 09:08:12;;;;;;;;;;;21.30;51.80;;;;;;465548;255;1084;-39
2022/05/30 09:10:13;;;;;;;;;;;21.30;51.80;;;;;;467524;254;1057;-39
2022/05/30 09:12:14;;;;;;;;;;;21.30;51.70;;;;;;464844;255;1297;-39
2022/05/30 09:14:16;;;;;;;;;;;21.30;51.70;;;;;;466633;255;1283;-39
2022/05/30 09:16:17;;;;;;;;;;;21.30;51.70;;;;;;464950;255;1307;-39
2022/05/30 09:18:18;;;;;;;;;;;21.30;51.60;;;;;;467488;254;1209;-39
2022/05/30 09:20:20;;;;;;;;;;;21.30;51.70;;;;;;465203;255;1283;-39
2022/05/30 09:22:24;;;;;;;;;;;21.30;51.60;;;;;;466969;255;1324;-39
2022/05/30 09:24:22;;;;;;;;;;;21.30;51.60;;;;;;465097;256;2408;-39
2022/05/30 09:26:24;;;;;;;;;;;21.30;51.60;;;;;;466803;254;1530;-39
2022/05/30 09:28:26;;;;;;;;;;;21.30;51.60;;;;;;464895;255;1318;-39
2022/05/30 09:30:27;;;;;;;;;;;21.30;51.60;;;;;;466502;254;1217;-39
2022/05/30 09:32:28;;;;;;;;;;;21.30;51.60;;;;;;464979;255;1168;-39
2022/05/30 09:34:29;;;;;;;;;;;21.30;51.70;;;;;;467027;255;1231;-39
2022/05/30 09:36:31;;;;;;;;;;;21.20;51.60;;;;;;465625;255;1193;-39
2022/05/30 09:38:32;;;;;;;;;;;21.20;51.60;;;;;;467550;254;1129;-39
2022/05/30 09:40:33;;;;;;;;;;;21.20;51.70;;;;;;465165;256;1137;-39
2022/05/30 09:42:35;;;;;;;;;;;21.30;51.70;;;;;;467261;254;1178;-39
2022/05/30 09:44:36;;;;;;;;;;;21.20;51.70;;;;;;464861;255;2158;-39
2022/05/30 09:46:38;;;;;;;;;;;21.30;51.70;;;;;;466757;254;1282;-39
2022/05/30 09:48:39;;;;;;;;;;;21.30;51.60;;;;;;464938;255;1175;-39
2022/05/30 09:50:40;;;;;;;;;;;21.30;51.50;;;;;;466442;254;1470;-39
2022/05/30 09:52:42;;;;;;;;;;;21.30;51.50;;;;;;465095;255;1077;-39
2022/05/30 09:54:43;;;;;;;;;;;21.30;51.50;;;;;;467059;254;1372;-39
2022/05/30 09:56:44;;;;;;;;;;;21.30;51.60;;;;;;465166;255;1206;-39
2022/05/30 09:58:46;;;;;;;;;;;21.30;51.50;;;;;;466790;254;1270;-39
2022/05/30 10:00:47;;;;;;;;;;;21.30;51.50;;;;;;465099;255;1193;-39
2022/05/30 10:02:48;;;;;;;;;;;21.30;51.50;;;;;;466908;255;2026;-39
2022/05/30 10:04:50;;;;;;;;;;;21.30;51.50;;;;;;465188;255;2209;-39
2022/05/30 10:06:51;;;;;;;;;;;21.30;51.50;;;;;;466833;254;1271;-39
2022/05/30 10:08:53;;;;;;;;;;;21.30;51.50;;;;;;464993;255;1261;-39
2022/05/30 10:10:56;;;;;;;;;;;21.30;51.40;;;;;;466966;254;1240;-39
2022/05/30 10:12:55;;;;;;;;;;;21.20;51.50;;;;;;464687;255;2223;-39
2022/05/30 10:14:57;;;;;;;;;;;21.20;51.50;;;;;;466724;255;1350;-39
2022/05/30 10:16:58;;;;;;;;;;;21.20;51.50;;;;;;464864;255;1252;-39
2022/05/30 10:18:59;;;;;;;;;;;21.20;51.40;;;;;;466638;255;1168;-39
2022/05/30 10:21:01;;;;;;;;;;;21.20;51.50;;;;;;464652;255;1320;-39
2022/05/30 10:30:00;;;;;;;;;;;21.20;51.40;;;;;;464842;255;1140;-39
2022/05/30 10:32:01;;;;;;;;;;;21.30;51.40;;;;;;466828;254;1373;-39
2022/05/30 10:34:02;;;;;;;;;;;21.20;51.30;;;;;;465772;255;1216;-39
2022/05/30 10:36:04;;;;;;;;;;;21.30;51.40;;;;;;467507;254;1088;-39
2022/05/30 10:38:05;;;;;;;;;;;21.30;51.30;;;;;;465309;255;1166;-39
2022/05/30 10:40:07;;;;;;;;;;;21.20;51.30;;;;;;466709;254;1257;-39
2022/05/30 10:42:08;;;;;;;;;;;21.20;51.30;;;;;;465383;255;1061;-39
2022/05/30 10:44:09;;;;;;;;;;;21.20;51.40;;;;;;467524;254;2257;-39
2022/05/30 10:46:11;;;;;;;;;;;21.20;51.50;;;;;;465605;255;1141;-39
2022/05/30 10:48:12;;;;;;;;;;;21.20;51.40;;;;;;467045;255;1216;-39
2022/05/30 10:50:14;;;;;;;;;;;21.20;51.40;;;;;;465550;255;1177;-39
2022/05/30 10:52:15;;;;;;;;;;;21.20;51.40;;;;;;467333;254;1120;-39
2022/05/30 10:54:16;;;;;;;;;;;21.20;51.40;;;;;;464655;255;1193;-39
2022/05/30 10:56:17;;;;;;;;;;;21.20;51.30;;;;;;466638;254;1235;-39
2022/05/30 10:58:19;;;;;;;;;;;21.20;51.40;;;;;;465200;255;1210;-39
2022/05/30 11:00:20;;;;;;;;;;;21.20;51.30;;;;;;467573;254;1108;-39
2022/05/30 11:02:22;;;;;;;;;;;21.20;51.30;;;;;;464860;255;1544;-39
2022/05/30 11:04:23;;;;;;;;;;;21.20;51.40;;;;;;467042;255;2200;-39
2022/05/30 11:06:24;;;;;;;;;;;21.10;51.30;;;;;;464763;255;1267;-39
2022/05/30 11:08:25;;;;;;;;;;;21.20;51.40;;;;;;466915;254;1347;-39
2022/05/30 11:10:27;;;;;;;;;;;21.20;51.40;;;;;;465285;255;1141;-39
2022/05/30 11:12:28;;;;;;;;;;;21.20;51.30;;;;;;467333;254;1232;-39
2022/05/30 11:14:29;;;;;;;;;;;21.20;51.30;;;;;;464938;255;1289;-39
2022/05/30 11:16:31;;;;;;;;;;;21.20;51.30;;;;;;466770;254;1230;-39
2022/05/30 11:18:32;;;;;;;;;;;21.20;51.30;;;;;;465121;255;2212;-39
2022/05/30 11:20:33;;;;;;;;;;;21.20;51.30;;;;;;466687;254;1275;-39
2022/05/30 11:22:35;;;;;;;;;;;21.30;51.20;;;;;;464797;255;1239;-39
2022/05/30 11:24:37;;;;;;;;;;;21.20;51.20;;;;;;466595;254;2201;-39
2022/05/30 11:26:39;;;;;;;;;;;21.20;51.20;;;;;;464610;255;1355;-39
2022/05/30 11:28:40;;;;;;;;;;;21.20;51.30;;;;;;466452;254;1406;-39
2022/05/30 11:30:42;;;;;;;;;;;21.10;51.30;;;;;;464798;255;1279;-39
2022/05/30 11:32:43;;;;;;;;;;;21.10;51.30;;;;;;466665;255;1211;-39
2022/05/30 11:34:44;;;;;;;;;;;21.20;51.20;;;;;;464847;255;1215;-39
2022/05/30 11:36:46;;;;;;;;;;;21.20;51.30;;;;;;466488;255;1280;-39
2022/05/30 11:38:47;;;;;;;;;;;21.20;51.20;;;;;;464817;255;1552;-39
2022/05/30 11:40:48;;;;;;;;;;;21.20;51.20;;;;;;466635;254;1313;-39
2022/05/30 11:42:50;;;;;;;;;;;21.10;51.20;;;;;;464748;255;1263;-39
2022/05/30 11:44:51;;;;;;;;;;;21.20;51.20;;;;;;466504;255;2209;-39
2022/05/30 11:46:54;;;;;;;;;;;21.20;51.20;;;;;;464887;255;1234;-39
2022/05/30 11:48:54;;;;;;;;;;;21.20;51.20;;;;;;466772;255;2090;-39
2022/05/30 11:50:55;;;;;;;;;;;21.20;51.20;;;;;;464763;255;1254;-39
2022/05/30 11:52:56;;;;;;;;;;;21.20;51.10;;;;;;467128;254;1204;-39
2022/05/30 11:54:59;;;;;;;;;;;21.20;51.10;;;;;;465013;255;1354;-39
2022/05/30 11:56:59;;;;;;;;;;;21.20;51.00;;;;;;467207;254;2156;-39
2022/05/30 11:59:02;;;;;;;;;;;21.10;51.10;;;;;;465005;255;1005;-39
2022/05/30 12:01:02;;;;;;;;;;;21.20;51.10;;;;;;467368;255;2180;-39
2022/05/30 12:03:03;;;;;;;;;;;21.20;51.00;;;;;;465281;255;1227;-39
2022/05/30 12:05:05;;;;;;;;;;;21.20;51.00;;;;;;467536;254;2216;-39
2022/05/30 12:07:06;;;;;;;;;;;21.20;50.90;;;;;;464942;255;1309;-39
2022/05/30 12:09:07;;;;;;;;;;;21.20;50.90;;;;;;467390;254;2301;-39
2022/05/30 12:11:08;;;;;;;;;;;21.20;51.00;;;;;;465309;255;1115;-39
2022/05/30 12:13:10;;;;;;;;;;;21.20;51.00;;;;;;467173;255;1203;-39
2022/05/30 12:15:11;;;;;;;;;;;21.20;51.00;;;;;;464709;255;1344;-39
2022/05/30 12:17:12;;;;;;;;;;;21.20;50.90;;;;;;466472;255;1293;-39
2022/05/30 12:23:52;;;;;;;;;;;21.20;50.90;;;;;;465525;255;1053;-39